createdAt,value
2018-02-22T00:00:04.881Z,28.60
2018-02-22T00:01:04.858Z,30.10
2018-02-22T00:02:04.827Z,29.30
2018-02-22T00:03:04.806Z,29.70
2018-02-22T00:04:05.092Z,30.40
2018-02-22T00:05:04.764Z,28.10
2018-02-22T00:06:04.726Z,28.10
2018-02-22T00:07:04.707Z,30.40
2018-02-22T00:08:04.680Z,33.40
2018-02-22T00:09:04.656Z,31.20
2018-02-22T00:10:04.641Z,32.00
2018-02-22T00:11:04.607Z,32.00
2018-02-22T00:12:04.586Z,33.70
2018-02-22T00:13:04.561Z,30.40
2018-02-22T00:14:04.538Z,31.10
2018-02-22T00:15:04.510Z,32.20
2018-02-22T00:16:04.486Z,30.60
2018-02-22T00:17:04.468Z,30.50
2018-02-22T00:18:04.438Z,29.20
2018-02-22T00:19:04.413Z,31.70
2018-02-22T00:20:04.387Z,30.60
2018-02-22T00:21:04.362Z,32.20
2018-02-22T00:22:04.345Z,32.70
2018-02-22T00:23:04.315Z,33.00
2018-02-22T00:24:04.288Z,30.30
2018-02-22T00:25:04.265Z,31.30
2018-02-22T00:26:04.242Z,31.20
2018-02-22T00:27:04.217Z,33.20
2018-02-22T00:28:04.193Z,31.70
2018-02-22T00:29:04.174Z,31.70
2018-02-22T00:30:04.148Z,31.10
2018-02-22T00:31:04.117Z,30.40
2018-02-22T00:32:04.092Z,31.10
2018-02-22T00:33:04.067Z,31.80
2018-02-22T00:34:04.048Z,31.40
2018-02-22T00:35:04.021Z,28.50
2018-02-22T00:36:04.008Z,28.80
2018-02-22T00:37:03.980Z,26.90
2018-02-22T00:38:03.948Z,27.00
2018-02-22T00:39:03.924Z,26.90
2018-02-22T00:40:03.902Z,25.60
2018-02-22T00:41:03.876Z,25.80
2018-02-22T00:42:03.851Z,25.50
2018-02-22T00:43:03.822Z,25.90
2018-02-22T00:44:03.805Z,25.40
2018-02-22T00:45:03.774Z,25.60
2018-02-22T00:46:03.753Z,25.20
2018-02-22T00:47:03.726Z,26.20
2018-02-22T00:48:03.702Z,25.60
2018-02-22T00:49:03.678Z,25.70
2018-02-22T00:50:03.651Z,25.80
2018-02-22T00:51:03.630Z,24.30
2018-02-22T00:52:03.606Z,26.00
2018-02-22T00:53:03.580Z,26.20
2018-02-22T00:54:03.552Z,26.30
2018-02-22T00:55:03.535Z,26.00
2018-02-22T00:56:03.506Z,26.60
2018-02-22T00:57:03.479Z,28.00
2018-02-22T00:58:03.454Z,28.10
2018-02-22T00:59:03.434Z,26.60
2018-02-22T01:00:03.405Z,27.10
2018-02-22T01:01:03.382Z,29.50
2018-02-22T01:02:03.357Z,29.60
2018-02-22T01:03:03.338Z,30.30
2018-02-22T01:04:03.308Z,28.70
2018-02-22T01:05:03.289Z,28.80
2018-02-22T01:06:03.264Z,29.90
2018-02-22T01:07:03.239Z,29.10
2018-02-22T01:08:03.208Z,29.40
2018-02-22T01:09:03.184Z,28.60
2018-02-22T01:10:03.161Z,28.50
2018-02-22T01:11:03.142Z,26.50
2018-02-22T01:12:03.112Z,26.90
2018-02-22T01:13:03.087Z,27.50
2018-02-22T01:14:03.066Z,30.30
2018-02-22T01:15:03.047Z,27.30
2018-02-22T01:16:03.017Z,28.30
2018-02-22T01:17:02.997Z,26.10
2018-02-22T01:18:02.965Z,28.10
2018-02-22T01:19:02.942Z,28.40
2018-02-22T01:20:02.925Z,28.80
2018-02-22T01:21:02.894Z,27.50
2018-02-22T01:22:02.913Z,27.30
2018-02-22T01:23:02.843Z,27.20
2018-02-22T01:24:02.818Z,27.40
2018-02-22T01:25:02.796Z,28.70
2018-02-22T01:26:02.770Z,29.50
2018-02-22T01:27:02.750Z,29.80
2018-02-22T01:28:02.724Z,29.10
2018-02-22T01:29:02.698Z,29.50
2018-02-22T01:30:02.680Z,31.30
2018-02-22T01:31:02.646Z,28.90
2018-02-22T01:32:02.621Z,27.80
2018-02-22T01:33:02.605Z,30.20
2018-02-22T01:34:02.573Z,28.50
2018-02-22T01:35:02.547Z,28.70
2018-02-22T01:36:02.525Z,27.10
2018-02-22T01:37:02.502Z,26.90
2018-02-22T01:38:02.478Z,27.00
2018-02-22T01:39:02.451Z,25.60
2018-02-22T01:40:02.428Z,26.80
2018-02-22T01:41:02.405Z,27.00
2018-02-22T01:42:02.378Z,26.10
2018-02-22T01:43:02.350Z,27.40
2018-02-22T01:44:02.326Z,26.80
2018-02-22T01:45:02.304Z,26.50
2018-02-22T01:46:02.278Z,26.30
2018-02-22T01:47:02.255Z,27.70
2018-02-22T01:48:02.228Z,26.40
2018-02-22T01:49:02.205Z,27.50
2018-02-22T01:50:02.186Z,26.60
2018-02-22T01:51:02.157Z,27.70
2018-02-22T01:52:02.131Z,28.20
2018-02-22T01:53:02.104Z,29.10
2018-02-22T01:54:02.083Z,29.30
2018-02-22T01:55:02.057Z,28.20
2018-02-22T01:56:02.030Z,30.10
2018-02-22T01:57:02.008Z,29.30
2018-02-22T01:58:01.984Z,29.00
2018-02-22T01:59:01.957Z,30.10
2018-02-22T02:00:01.937Z,30.90
2018-02-22T02:01:01.905Z,30.30
2018-02-22T02:02:01.883Z,28.80
2018-02-22T02:03:01.878Z,30.00
2018-02-22T02:04:01.835Z,29.60
2018-02-22T02:05:01.808Z,30.80
2018-02-22T02:06:01.788Z,29.50
2018-02-22T02:07:01.768Z,30.10
2018-02-22T02:08:01.736Z,29.30
2018-02-22T02:09:01.716Z,29.70
2018-02-22T02:10:01.688Z,30.40
2018-02-22T02:11:01.667Z,29.30
2018-02-22T02:12:01.637Z,29.40
2018-02-22T02:13:01.612Z,30.00
2018-02-22T02:14:01.591Z,29.90
2018-02-22T02:15:01.563Z,29.30
2018-02-22T02:16:01.537Z,30.40
2018-02-22T02:17:01.515Z,28.50
2018-02-22T02:18:01.490Z,29.40
2018-02-22T02:19:01.464Z,29.70
2018-02-22T02:20:01.437Z,28.10
2018-02-22T02:21:01.413Z,29.40
2018-02-22T02:22:01.388Z,28.20
2018-02-22T02:23:01.366Z,30.40
2018-02-22T02:24:01.340Z,29.90
2018-02-22T02:25:01.314Z,28.50
2018-02-22T02:26:01.291Z,27.90
2018-02-22T02:27:01.268Z,26.60
2018-02-22T02:28:01.245Z,27.70
2018-02-22T02:29:01.218Z,29.10
2018-02-22T02:30:01.202Z,26.40
2018-02-22T02:31:01.166Z,27.50
2018-02-22T02:32:01.144Z,26.90
2018-02-22T02:33:01.122Z,25.90
2018-02-22T02:34:01.097Z,25.60
2018-02-22T02:35:01.070Z,25.10
2018-02-22T02:36:01.056Z,25.70
2018-02-22T02:37:01.018Z,25.60
2018-02-22T02:38:00.998Z,25.80
2018-02-22T02:39:00.972Z,25.90
2018-02-22T02:40:00.945Z,24.10
2018-02-22T02:41:00.919Z,25.90
2018-02-22T02:42:00.898Z,25.30
2018-02-22T02:43:00.868Z,26.60
2018-02-22T02:44:00.846Z,25.20
2018-02-22T02:45:00.823Z,26.80
2018-02-22T02:46:00.792Z,27.60
2018-02-22T02:47:00.786Z,25.70
2018-02-22T02:48:00.746Z,27.10
2018-02-22T02:49:00.720Z,26.60
2018-02-22T02:50:00.703Z,26.80
2018-02-22T02:51:00.673Z,26.20
2018-02-22T02:52:00.647Z,26.10
2018-02-22T02:53:00.627Z,26.60
2018-02-22T02:54:00.598Z,26.00
2018-02-22T02:55:00.578Z,25.90
2018-02-22T02:56:00.547Z,26.70
2018-02-22T02:57:00.522Z,27.10
2018-02-22T02:58:00.499Z,25.80
2018-02-22T02:59:00.479Z,26.00
2018-02-22T03:00:00.450Z,26.90
2018-02-22T03:01:00.423Z,27.00
2018-02-22T03:02:00.398Z,27.20
2018-02-22T03:03:00.372Z,27.50
2018-02-22T03:04:00.347Z,27.10
2018-02-22T03:05:00.327Z,26.50
2018-02-22T03:06:00.300Z,26.90
2018-02-22T03:07:00.277Z,27.10
2018-02-22T03:08:00.247Z,27.60
2018-02-22T03:09:00.228Z,27.50
2018-02-22T03:10:00.204Z,28.80
2018-02-22T03:11:00.175Z,29.20
2018-02-22T03:12:00.152Z,26.90
2018-02-22T03:13:00.124Z,26.00
2018-02-22T03:14:00.101Z,27.20
2018-02-22T03:15:00.077Z,29.20
2018-02-22T03:16:00.050Z,28.60
2018-02-22T03:17:00.028Z,27.50
2018-02-22T03:18:00.004Z,28.20
2018-02-22T03:18:59.976Z,28.70
2018-02-22T03:19:59.949Z,26.80
2018-02-22T03:20:59.925Z,27.60
2018-02-22T03:21:59.906Z,27.80
2018-02-22T03:22:59.877Z,28.50
2018-02-22T03:23:59.853Z,28.40
2018-02-22T03:24:59.827Z,28.30
2018-02-22T03:25:59.806Z,28.60
2018-02-22T03:26:59.787Z,27.50
2018-02-22T03:27:59.750Z,26.00
2018-02-22T03:28:59.732Z,26.90
2018-02-22T03:29:59.703Z,26.30
2018-02-22T03:30:59.681Z,25.90
2018-02-22T03:31:59.669Z,26.00
2018-02-22T03:32:59.627Z,25.60
2018-02-22T03:33:59.605Z,25.50
2018-02-22T03:34:59.582Z,25.30
2018-02-22T03:35:59.553Z,25.20
2018-02-22T03:36:59.537Z,26.20
2018-02-22T03:37:59.505Z,24.10
2018-02-22T03:38:59.480Z,24.60
2018-02-22T03:39:59.456Z,24.30
2018-02-22T03:40:59.433Z,23.80
2018-02-22T03:41:59.407Z,24.60
2018-02-22T03:42:59.384Z,24.40
2018-02-22T03:43:59.362Z,24.90
2018-02-22T03:44:59.330Z,26.60
2018-02-22T03:45:59.357Z,25.80
2018-02-22T03:46:59.283Z,24.30
2018-02-22T03:47:59.261Z,24.60
2018-02-22T03:48:59.246Z,26.10
2018-02-22T03:49:59.209Z,23.70
2018-02-22T03:50:59.188Z,24.00
2018-02-22T03:51:59.155Z,25.10
2018-02-22T03:52:59.131Z,25.70
2018-02-22T03:53:59.107Z,22.60
2018-02-22T03:54:59.084Z,24.20
2018-02-22T03:55:59.062Z,24.70
2018-02-22T03:56:59.039Z,23.00
2018-02-22T03:57:59.008Z,24.60
2018-02-22T03:58:58.983Z,26.50
2018-02-22T03:59:58.955Z,24.10
2018-02-22T04:00:58.932Z,24.70
2018-02-22T04:01:58.910Z,25.30
2018-02-22T04:02:58.884Z,24.90
2018-02-22T04:03:58.857Z,23.50
2018-02-22T04:04:58.836Z,24.40
2018-02-22T04:05:58.811Z,24.00
2018-02-22T04:06:58.786Z,25.60
2018-02-22T04:07:58.756Z,25.20
2018-02-22T04:08:58.732Z,26.50
2018-02-22T04:09:58.708Z,24.90
2018-02-22T04:10:58.689Z,25.90
2018-02-22T04:11:58.656Z,24.60
2018-02-22T04:12:58.634Z,26.10
2018-02-22T04:13:58.608Z,25.20
2018-02-22T04:14:58.583Z,26.10
2018-02-22T04:15:58.556Z,25.50
2018-02-22T04:16:58.532Z,25.50
2018-02-22T04:17:58.509Z,24.20
2018-02-22T04:18:58.485Z,25.40
2018-02-22T04:19:58.457Z,25.00
2018-02-22T04:20:58.434Z,24.00
2018-02-22T04:21:58.416Z,24.70
2018-02-22T04:22:58.384Z,24.50
2018-02-22T04:23:58.359Z,23.90
2018-02-22T04:24:58.342Z,23.20
2018-02-22T04:25:58.308Z,24.30
2018-02-22T04:26:58.289Z,25.40
2018-02-22T04:27:58.257Z,22.60
2018-02-22T04:28:58.233Z,23.00
2018-02-22T04:29:58.210Z,24.90
2018-02-22T04:30:58.189Z,23.50
2018-02-22T04:31:58.159Z,23.70
2018-02-22T04:32:58.138Z,24.90
2018-02-22T04:33:58.117Z,24.80
2018-02-22T04:34:58.085Z,22.90
2018-02-22T04:35:58.058Z,22.70
2018-02-22T04:36:58.036Z,23.50
2018-02-22T04:37:58.010Z,23.90
2018-02-22T04:38:57.987Z,24.20
2018-02-22T04:39:57.958Z,24.40
2018-02-22T04:40:57.933Z,24.70
2018-02-22T04:41:57.913Z,23.20
2018-02-22T04:42:57.884Z,23.30
2018-02-22T04:43:57.857Z,24.20
2018-02-22T04:44:57.837Z,23.80
2018-02-22T04:45:57.807Z,24.90
2018-02-22T04:46:57.788Z,25.10
2018-02-22T04:47:57.756Z,22.80
2018-02-22T04:48:57.731Z,23.70
2018-02-22T04:49:57.709Z,24.60
2018-02-22T04:50:57.684Z,23.80
2018-02-22T04:51:57.664Z,24.10
2018-02-22T04:52:57.630Z,24.80
2018-02-22T04:53:57.605Z,25.60
2018-02-22T04:54:57.580Z,25.80
2018-02-22T04:55:57.557Z,25.40
2018-02-22T04:56:57.533Z,24.70
2018-02-22T04:57:57.510Z,24.90
2018-02-22T04:58:57.484Z,24.50
2018-02-22T04:59:57.459Z,25.80
2018-02-22T05:00:57.430Z,24.80
2018-02-22T05:01:57.406Z,25.10
2018-02-22T05:02:57.383Z,24.60
2018-02-22T05:03:57.358Z,22.80
2018-02-22T05:04:57.334Z,22.60
2018-02-22T05:05:57.305Z,24.20
2018-02-22T05:06:57.280Z,23.80
2018-02-22T05:07:57.256Z,24.10
2018-02-22T05:08:57.232Z,23.20
2018-02-22T05:09:57.215Z,22.80
2018-02-22T05:10:57.184Z,25.10
2018-02-22T05:11:57.159Z,25.90
2018-02-22T05:12:57.139Z,27.30
2018-02-22T05:13:57.108Z,25.00
2018-02-22T05:14:57.081Z,26.30
2018-02-22T05:15:57.058Z,27.00
2018-02-22T05:16:57.036Z,25.20
2018-02-22T05:17:57.008Z,26.00
2018-02-22T05:18:56.985Z,26.50
2018-02-22T05:19:56.961Z,24.80
2018-02-22T05:20:56.928Z,25.70
2018-02-22T05:21:56.906Z,26.10
2018-02-22T05:22:56.883Z,27.30
2018-02-22T05:23:56.857Z,26.30
2018-02-22T05:24:56.829Z,25.40
2018-02-22T05:25:56.806Z,26.80
2018-02-22T05:26:56.782Z,26.60
2018-02-22T05:27:56.755Z,26.60
2018-02-22T05:28:56.732Z,27.20
2018-02-22T05:29:56.707Z,29.60
2018-02-22T05:30:56.684Z,31.90
2018-02-22T05:31:56.654Z,30.60
2018-02-22T05:32:56.630Z,30.70
2018-02-22T05:33:56.603Z,30.20
2018-02-22T05:34:56.580Z,30.00
2018-02-22T05:35:56.556Z,26.10
2018-02-22T05:36:56.545Z,25.90
2018-02-22T05:37:56.505Z,25.20
2018-02-22T05:38:56.487Z,25.50
2018-02-22T05:39:56.457Z,25.60
2018-02-22T05:40:56.429Z,23.80
2018-02-22T05:41:56.407Z,24.00
2018-02-22T05:42:56.379Z,24.90
2018-02-22T05:43:56.356Z,24.00
2018-02-22T05:44:56.342Z,23.70
2018-02-22T05:45:56.307Z,25.50
2018-02-22T05:46:56.289Z,25.90
2018-02-22T05:47:56.254Z,24.60
2018-02-22T05:48:56.230Z,27.10
2018-02-22T05:49:56.206Z,24.80
2018-02-22T05:50:56.182Z,27.10
2018-02-22T05:51:56.159Z,24.10
2018-02-22T05:52:56.128Z,24.30
2018-02-22T05:53:56.111Z,24.40
2018-02-22T05:54:56.078Z,23.20
2018-02-22T05:55:56.054Z,24.90
2018-02-22T05:56:56.032Z,23.60
2018-02-22T05:57:56.008Z,22.80
2018-02-22T05:58:55.987Z,24.60
2018-02-22T05:59:55.958Z,23.40
2018-02-22T06:00:55.936Z,24.20
2018-02-22T06:01:55.906Z,23.50
2018-02-22T06:02:55.886Z,24.40
2018-02-22T06:03:55.856Z,24.80
2018-02-22T06:04:55.832Z,23.40
2018-02-22T06:05:55.810Z,23.50
2018-02-22T06:06:55.781Z,24.90
2018-02-22T06:07:55.763Z,24.20
2018-02-22T06:08:55.730Z,23.00
2018-02-22T06:09:55.711Z,22.10
2018-02-22T06:10:55.685Z,24.40
2018-02-22T06:11:55.657Z,23.80
2018-02-22T06:12:55.627Z,23.30
2018-02-22T06:13:55.614Z,24.10
2018-02-22T06:14:55.579Z,24.30
2018-02-22T06:15:55.556Z,24.20
2018-02-22T06:16:55.527Z,23.50
2018-02-22T06:17:55.510Z,23.20
2018-02-22T06:18:55.490Z,24.10
2018-02-22T06:19:55.452Z,23.30
2018-02-22T06:20:55.428Z,23.40
2018-02-22T06:21:55.402Z,23.60
2018-02-22T06:22:55.378Z,23.60
2018-02-22T06:23:55.360Z,23.00
2018-02-22T06:24:55.328Z,23.40
2018-02-22T06:25:55.300Z,25.50
2018-02-22T06:26:55.278Z,25.30
2018-02-22T06:27:55.252Z,24.70
2018-02-22T06:28:55.231Z,23.50
2018-02-22T06:29:55.205Z,24.50
2018-02-22T06:30:55.176Z,24.40
2018-02-22T06:31:55.148Z,24.50
2018-02-22T06:32:55.199Z,23.40
2018-02-22T06:33:55.097Z,24.80
2018-02-22T06:34:55.077Z,24.60
2018-02-22T06:35:55.047Z,24.60
2018-02-22T06:36:55.028Z,24.00
2018-02-22T06:37:54.998Z,23.90
2018-02-22T06:38:54.974Z,25.00
2018-02-22T06:39:54.948Z,24.80
2018-02-22T06:40:54.930Z,25.40
2018-02-22T06:41:54.897Z,24.70
2018-02-22T06:42:54.870Z,24.50
2018-02-22T06:43:54.850Z,24.60
2018-02-22T06:44:54.824Z,24.30
2018-02-22T06:45:54.803Z,23.80
2018-02-22T06:46:54.776Z,25.10
2018-02-22T06:47:54.750Z,24.80
2018-02-22T06:48:54.718Z,25.20
2018-02-22T06:49:54.697Z,23.60
2018-02-22T06:50:54.672Z,26.20
2018-02-22T06:51:54.651Z,27.30
2018-02-22T06:52:54.618Z,25.60
2018-02-22T06:53:54.592Z,25.50
2018-02-22T06:54:54.581Z,25.60
2018-02-22T06:55:54.546Z,25.30
2018-02-22T06:56:54.516Z,26.20
2018-02-22T06:57:54.515Z,24.60
2018-02-22T06:58:54.471Z,23.50
2018-02-22T06:59:54.444Z,25.80
2018-02-22T07:00:54.420Z,26.00
2018-02-22T07:01:54.395Z,24.10
2018-02-22T07:02:54.369Z,26.00
2018-02-22T07:03:54.340Z,24.80
2018-02-22T07:04:54.318Z,24.90
2018-02-22T07:05:54.287Z,25.30
2018-02-22T07:06:54.267Z,24.80
2018-02-22T07:07:54.238Z,24.90
2018-02-22T07:08:54.221Z,25.70
2018-02-22T07:09:54.189Z,25.00
2018-02-22T07:10:54.162Z,24.90
2018-02-22T07:11:54.138Z,25.50
2018-02-22T07:12:54.121Z,24.10
2018-02-22T07:13:54.108Z,24.70
2018-02-22T07:14:54.068Z,25.70
2018-02-22T07:15:54.041Z,25.90
2018-02-22T07:16:54.015Z,25.00
2018-02-22T07:17:53.992Z,24.90
2018-02-22T07:18:53.965Z,23.90
2018-02-22T07:19:53.936Z,27.00
2018-02-22T07:20:53.912Z,26.40
2018-02-22T07:21:53.887Z,25.20
2018-02-22T07:22:53.861Z,24.20
2018-02-22T07:23:53.837Z,25.30
2018-02-22T07:24:53.808Z,26.00
2018-02-22T07:25:53.786Z,26.50
2018-02-22T07:26:53.766Z,26.40
2018-02-22T07:27:53.735Z,25.50
2018-02-22T07:28:53.708Z,26.60
2018-02-22T07:29:53.687Z,26.50
2018-02-22T07:30:53.658Z,27.30
2018-02-22T07:31:53.641Z,25.50
2018-02-22T07:32:53.608Z,26.60
2018-02-22T07:33:53.583Z,26.10
2018-02-22T07:34:53.559Z,26.10
2018-02-22T07:35:53.528Z,25.80
2018-02-22T07:36:53.504Z,27.30
2018-02-22T07:37:53.478Z,25.10
2018-02-22T07:38:53.455Z,27.30
2018-02-22T07:39:53.431Z,26.20
2018-02-22T07:40:53.411Z,26.80
2018-02-22T07:41:53.379Z,26.80
2018-02-22T07:42:53.360Z,27.80
2018-02-22T07:43:53.328Z,24.90
2018-02-22T07:44:53.303Z,26.30
2018-02-22T07:45:53.277Z,26.50
2018-02-22T07:46:53.252Z,28.50
2018-02-22T07:47:53.226Z,28.20
2018-02-22T07:48:53.200Z,28.10
2018-02-22T07:49:53.176Z,27.20
2018-02-22T07:50:53.149Z,28.80
2018-02-22T07:51:53.120Z,27.20
2018-02-22T07:52:53.099Z,27.80
2018-02-22T07:53:53.074Z,27.60
2018-02-22T07:54:53.047Z,26.40
2018-02-22T07:55:53.019Z,28.70
2018-02-22T07:56:53.003Z,28.00
2018-02-22T07:57:52.971Z,26.80
2018-02-22T07:58:52.947Z,27.60
2018-02-22T07:59:52.923Z,28.80
2018-02-22T08:00:52.894Z,26.50
2018-02-22T08:01:52.877Z,28.40
2018-02-22T08:02:52.844Z,28.90
2018-02-22T08:03:52.830Z,29.70
2018-02-22T08:04:52.796Z,27.80
2018-02-22T08:05:52.768Z,27.00
2018-02-22T08:06:52.745Z,28.20
2018-02-22T08:07:52.716Z,28.70
2018-02-22T08:08:52.702Z,27.30
2018-02-22T08:09:52.667Z,27.90
2018-02-22T08:10:52.645Z,28.60
2018-02-22T08:11:52.617Z,27.20
2018-02-22T08:12:52.598Z,27.20
2018-02-22T08:13:52.566Z,28.00
2018-02-22T08:14:52.541Z,28.30
2018-02-22T08:15:52.523Z,27.20
2018-02-22T08:16:52.494Z,27.00
2018-02-22T08:17:52.470Z,28.60
2018-02-22T08:18:52.448Z,30.80
2018-02-22T08:19:52.416Z,29.50
2018-02-22T08:20:52.390Z,28.90
2018-02-22T08:21:52.367Z,28.00
2018-02-22T08:22:52.343Z,27.90
2018-02-22T08:23:52.316Z,26.60
2018-02-22T08:24:52.297Z,25.10
2018-02-22T08:25:52.263Z,26.70
2018-02-22T08:26:52.242Z,27.40
2018-02-22T08:27:52.216Z,25.70
2018-02-22T08:28:52.192Z,28.30
2018-02-22T08:29:52.168Z,27.70
2018-02-22T08:30:52.136Z,28.10
2018-02-22T08:31:52.113Z,27.80
2018-02-22T08:32:52.099Z,25.30
2018-02-22T08:33:52.064Z,26.90
2018-02-22T08:34:52.037Z,26.50
2018-02-22T08:35:52.018Z,25.60
2018-02-22T08:36:52.242Z,25.80
2018-02-22T08:37:51.962Z,26.30
2018-02-22T08:38:51.948Z,26.10
2018-02-22T08:39:51.914Z,26.80
2018-02-22T08:40:51.892Z,26.30
2018-02-22T08:41:51.866Z,26.80
2018-02-22T08:42:51.843Z,26.60
2018-02-22T08:43:51.814Z,26.90
2018-02-22T08:44:51.792Z,26.70
2018-02-22T08:45:51.763Z,27.80
2018-02-22T08:46:51.742Z,26.50
2018-02-22T08:47:51.716Z,26.60
2018-02-22T08:48:51.699Z,26.40
2018-02-22T08:49:51.670Z,28.40
2018-02-22T08:50:51.635Z,25.00
2018-02-22T08:51:51.616Z,25.60
2018-02-22T08:52:51.587Z,25.50
2018-02-22T08:53:51.571Z,26.10
2018-02-22T08:54:51.542Z,24.80
2018-02-22T08:55:51.510Z,24.50
2018-02-22T08:56:51.485Z,24.10
2018-02-22T08:57:51.462Z,26.40
2018-02-22T08:58:51.434Z,26.90
2018-02-22T08:59:51.415Z,25.60
2018-02-22T09:00:51.387Z,26.90
2018-02-22T09:01:51.365Z,26.40
2018-02-22T09:02:51.336Z,23.90
2018-02-22T09:03:51.317Z,25.30
2018-02-22T09:04:51.288Z,25.00
2018-02-22T09:05:51.261Z,24.00
2018-02-22T09:06:51.239Z,25.10
2018-02-22T09:07:51.214Z,25.00
2018-02-22T09:08:51.190Z,24.10
2018-02-22T09:09:51.166Z,23.90
2018-02-22T09:10:51.137Z,23.50
2018-02-22T09:11:51.116Z,23.30
2018-02-22T09:12:51.097Z,23.40
2018-02-22T09:13:51.077Z,22.00
2018-02-22T09:14:51.041Z,22.40
2018-02-22T09:15:51.016Z,21.80
2018-02-22T09:16:50.991Z,22.70
2018-02-22T09:17:50.979Z,22.70
2018-02-22T09:18:50.946Z,22.60
2018-02-22T09:19:50.928Z,22.20
2018-02-22T09:20:50.900Z,21.80
2018-02-22T09:21:50.866Z,20.70
2018-02-22T09:22:50.840Z,20.60
2018-02-22T09:23:50.818Z,21.40
2018-02-22T09:24:50.793Z,21.30
2018-02-22T09:25:50.767Z,21.50
2018-02-22T09:26:50.744Z,21.50
2018-02-22T09:27:50.717Z,21.30
2018-02-22T09:28:50.689Z,20.80
2018-02-22T09:29:50.666Z,22.20
2018-02-22T09:30:50.650Z,21.00
2018-02-22T09:31:50.617Z,20.80
2018-02-22T09:32:50.596Z,20.70
2018-02-22T09:33:50.568Z,20.00
2018-02-22T09:34:50.545Z,19.50
2018-02-22T09:35:50.524Z,19.10
2018-02-22T09:36:50.493Z,19.00
2018-02-22T09:37:50.469Z,19.70
2018-02-22T09:38:50.450Z,19.70
2018-02-22T09:39:50.417Z,18.20
2018-02-22T09:40:50.394Z,19.60
2018-02-22T09:41:50.370Z,20.70
2018-02-22T09:42:50.346Z,20.20
2018-02-22T09:43:50.327Z,18.70
2018-02-22T09:44:50.296Z,19.50
2018-02-22T09:45:50.272Z,19.00
2018-02-22T09:46:50.246Z,18.70
2018-02-22T09:47:50.220Z,19.40
2018-02-22T09:48:50.196Z,18.80
2018-02-22T09:49:50.171Z,21.80
2018-02-22T09:50:50.149Z,19.10
2018-02-22T09:51:50.124Z,20.00
2018-02-22T09:52:50.098Z,18.80
2018-02-22T09:53:50.077Z,17.40
2018-02-22T09:54:50.053Z,17.30
2018-02-22T09:55:50.028Z,17.60
2018-02-22T09:56:50.000Z,18.60
2018-02-22T09:57:49.977Z,17.90
2018-02-22T09:58:49.953Z,17.50
2018-02-22T09:59:49.929Z,17.70
2018-02-22T10:00:49.901Z,17.90
2018-02-22T10:01:49.880Z,16.70
2018-02-22T10:02:49.856Z,18.00
2018-02-22T10:03:49.827Z,18.40
2018-02-22T10:04:49.803Z,18.00
2018-02-22T10:05:49.782Z,16.80
2018-02-22T10:06:49.758Z,16.60
2018-02-22T10:07:49.731Z,16.50
2018-02-22T10:08:49.709Z,16.70
2018-02-22T10:09:49.685Z,16.20
2018-02-22T10:10:49.660Z,16.30
2018-02-22T10:11:49.637Z,15.80
2018-02-22T10:12:49.639Z,14.60
2018-02-22T10:13:49.588Z,15.00
2018-02-22T10:14:49.561Z,15.10
2018-02-22T10:15:49.542Z,13.30
2018-02-22T10:16:49.524Z,14.00
2018-02-22T10:17:49.490Z,14.20
2018-02-22T10:18:49.466Z,12.70
2018-02-22T10:19:49.440Z,13.40
2018-02-22T10:20:49.417Z,12.60
2018-02-22T10:21:49.388Z,12.20
2018-02-22T10:22:49.368Z,12.60
2018-02-22T10:23:49.346Z,13.10
2018-02-22T10:24:49.316Z,11.90
2018-02-22T10:25:49.297Z,12.90
2018-02-22T10:26:49.275Z,11.00
2018-02-22T10:27:49.250Z,11.60
2018-02-22T10:28:49.228Z,12.10
2018-02-22T10:29:49.198Z,11.60
2018-02-22T10:30:49.182Z,10.90
2018-02-22T10:31:49.150Z,11.40
2018-02-22T10:32:49.121Z,10.60
2018-02-22T10:33:49.103Z,10.50
2018-02-22T10:34:49.081Z,11.10
2018-02-22T10:35:49.051Z,11.50
2018-02-22T10:36:49.027Z,12.00
2018-02-22T10:37:49.011Z,11.60
2018-02-22T10:38:48.988Z,10.80
2018-02-22T10:39:48.955Z,11.50
2018-02-22T10:40:48.930Z,10.80
2018-02-22T10:41:48.910Z,10.50
2018-02-22T10:42:48.895Z,10.70
2018-02-22T10:43:48.860Z,10.40
2018-02-22T10:44:48.875Z,10.40
2018-02-22T10:45:48.834Z,10.60
2018-02-22T10:46:48.791Z,11.50
2018-02-22T10:47:48.766Z,11.60
2018-02-22T10:48:48.744Z,10.90
2018-02-22T10:49:48.718Z,11.40
2018-02-22T10:50:48.694Z,10.80
2018-02-22T10:51:48.671Z,11.90
2018-02-22T10:52:48.647Z,11.20
2018-02-22T10:53:48.624Z,10.90
2018-02-22T10:54:48.659Z,11.00
2018-02-22T10:55:48.585Z,10.80
2018-02-22T10:56:48.550Z,11.00
2018-02-22T10:57:48.537Z,11.40
2018-02-22T10:58:48.506Z,10.90
2018-02-22T10:59:48.479Z,11.10
2018-02-22T11:00:48.457Z,10.90
2018-02-22T11:01:48.431Z,11.70
2018-02-22T11:02:48.410Z,11.60
2018-02-22T11:03:48.383Z,12.90
2018-02-22T11:04:48.364Z,11.10
2018-02-22T11:05:48.343Z,11.40
2018-02-22T11:06:48.312Z,11.10
2018-02-22T11:07:48.286Z,10.90
2018-02-22T11:08:48.263Z,10.60
2018-02-22T11:09:48.243Z,10.20
2018-02-22T11:10:48.217Z,11.20
2018-02-22T11:11:48.195Z,10.40
2018-02-22T11:12:48.171Z,11.10
2018-02-22T11:13:48.158Z,11.50
2018-02-22T11:14:48.124Z,10.00
2018-02-22T11:15:48.107Z,11.20
2018-02-22T11:16:48.079Z,10.40
2018-02-22T11:17:48.052Z,11.70
2018-02-22T11:18:48.026Z,11.20
2018-02-22T11:19:48.041Z,11.20
2018-02-22T11:20:47.991Z,12.40
2018-02-22T11:21:47.957Z,11.60
2018-02-22T11:22:47.938Z,12.00
2018-02-22T11:23:47.917Z,11.80
2018-02-22T11:24:47.886Z,11.00
2018-02-22T11:25:47.863Z,11.00
2018-02-22T11:26:47.836Z,12.20
2018-02-22T11:27:47.817Z,12.20
2018-02-22T11:28:47.797Z,11.20
2018-02-22T11:29:47.768Z,12.30
2018-02-22T11:30:47.756Z,11.00
2018-02-22T11:31:47.722Z,11.70
2018-02-22T11:32:47.700Z,11.90
2018-02-22T11:33:47.676Z,11.80
2018-02-22T11:34:47.653Z,11.70
2018-02-22T11:35:47.626Z,12.60
2018-02-22T11:36:47.609Z,11.60
2018-02-22T11:37:47.584Z,12.50
2018-02-22T11:38:47.556Z,11.70
2018-02-22T11:39:47.533Z,11.90
2018-02-22T11:40:47.509Z,11.10
2018-02-22T11:41:47.487Z,11.70
2018-02-22T11:42:47.461Z,11.30
2018-02-22T11:43:47.444Z,10.40
2018-02-22T11:44:47.419Z,10.70
2018-02-22T11:45:47.396Z,11.10
2018-02-22T11:46:47.372Z,11.00
2018-02-22T11:47:47.347Z,11.50
2018-02-22T11:48:47.329Z,11.70
2018-02-22T11:49:47.297Z,11.00
2018-02-22T11:50:47.275Z,11.20
2018-02-22T11:51:47.266Z,11.80
2018-02-22T11:52:47.233Z,11.80
2018-02-22T11:53:47.210Z,13.30
2018-02-22T11:54:47.182Z,12.70
2018-02-22T11:55:47.157Z,12.70
2018-02-22T11:56:47.134Z,12.40
2018-02-22T11:57:47.119Z,12.70
2018-02-22T11:58:47.105Z,12.80
2018-02-22T11:59:47.067Z,12.30
2018-02-22T12:00:47.050Z,13.90
2018-02-22T12:01:47.021Z,12.90
2018-02-22T12:02:46.995Z,12.40
2018-02-22T12:03:46.978Z,12.60
2018-02-22T12:04:46.951Z,12.30
2018-02-22T12:05:46.930Z,12.90
2018-02-22T12:06:46.905Z,12.70
2018-02-22T12:07:46.881Z,12.60
2018-02-22T12:08:46.855Z,13.10
2018-02-22T12:09:46.834Z,11.80
2018-02-22T12:10:46.811Z,12.50
2018-02-22T12:11:46.785Z,11.50
2018-02-22T12:12:46.767Z,12.20
2018-02-22T12:13:46.744Z,13.30
2018-02-22T12:14:46.717Z,13.60
2018-02-22T12:15:46.698Z,12.50
2018-02-22T12:16:46.676Z,12.80
2018-02-22T12:17:46.650Z,13.60
2018-02-22T12:18:46.626Z,13.20
2018-02-22T12:19:46.602Z,13.60
2018-02-22T12:20:46.582Z,13.80
2018-02-22T12:21:46.557Z,13.50
2018-02-22T12:22:46.547Z,13.30
2018-02-22T12:23:46.512Z,13.30
2018-02-22T12:24:46.486Z,13.60
2018-02-22T12:25:46.465Z,13.30
2018-02-22T12:26:46.442Z,13.00
2018-02-22T12:27:46.422Z,13.00
2018-02-22T12:28:46.403Z,12.80
2018-02-22T12:29:46.371Z,13.10
2018-02-22T12:30:46.353Z,12.00
2018-02-22T12:31:46.328Z,13.20
2018-02-22T12:32:46.317Z,12.90
2018-02-22T12:33:46.283Z,13.90
2018-02-22T12:34:46.268Z,13.10
2018-02-22T12:35:46.237Z,12.70
2018-02-22T12:36:46.213Z,13.70
2018-02-22T12:37:46.191Z,13.50
2018-02-22T12:38:46.168Z,14.90
2018-02-22T12:39:46.142Z,13.10
2018-02-22T12:40:46.124Z,14.80
2018-02-22T12:41:46.098Z,15.60
2018-02-22T12:42:46.075Z,14.70
2018-02-22T12:43:46.049Z,14.70
2018-02-22T12:44:46.030Z,14.60
2018-02-22T12:45:46.006Z,13.90
2018-02-22T12:46:45.980Z,14.00
2018-02-22T12:47:45.974Z,14.40
2018-02-22T12:48:45.933Z,14.80
2018-02-22T12:49:45.941Z,13.70
2018-02-22T12:50:45.885Z,14.70
2018-02-22T12:51:45.864Z,15.10